createdAt,value
2019-06-07T00:02:10.666Z,83.97
2019-06-07T00:04:21.678Z,84.19
2019-06-07T00:06:32.567Z,84.03
2019-06-07T00:08:43.498Z,84.19
2019-06-07T00:10:54.366Z,84.33
2019-06-07T00:13:05.293Z,84.75
2019-06-07T00:15:21.908Z,84.91
2019-06-07T00:17:29.093Z,84.68
2019-06-07T00:19:40.024Z,83.70
2019-06-07T00:22:15.889Z,83.65
2019-06-07T00:24:03.830Z,83.80
2019-06-07T00:26:18.163Z,83.24
2019-06-07T00:28:27.413Z,82.71
2019-06-07T00:30:50.528Z,83.02
2019-06-07T00:32:51.418Z,83.21
2019-06-07T00:35:06.889Z,83.36
2019-06-07T00:37:20.718Z,83.64
2019-06-07T00:39:32.388Z,83.72
2019-06-07T00:41:43.337Z,83.65
2019-06-07T00:43:54.274Z,83.67
2019-06-07T00:46:05.104Z,83.68
2019-06-07T00:48:26.765Z,83.48
2019-06-07T00:50:28.735Z,83.59
2019-06-07T00:53:14.103Z,83.48
2019-06-07T00:54:52.411Z,83.63
2019-06-07T00:57:03.474Z,83.86
2019-06-07T00:59:16.875Z,83.99
2019-06-07T01:01:27.161Z,83.64
2019-06-07T01:03:37.985Z,83.91
2019-06-07T01:05:48.810Z,84.38
2019-06-07T01:08:01.574Z,84.48
2019-06-07T01:10:13.838Z,84.50
2019-06-07T01:12:27.020Z,84.55
2019-06-07T01:14:38.618Z,84.35
2019-06-07T01:16:57.247Z,83.37
2019-06-07T01:19:02.469Z,83.59
2019-06-07T01:21:15.813Z,84.00
2019-06-07T01:25:38.836Z,84.08
2019-06-07T01:27:49.694Z,83.94
2019-06-07T01:30:00.637Z,83.63
2019-06-07T01:32:11.458Z,83.82
2019-06-07T01:34:25.690Z,83.95
2019-06-07T01:36:35.116Z,83.27
2019-06-07T01:38:45.955Z,83.72
2019-06-07T01:40:56.770Z,83.84
2019-06-07T01:43:07.606Z,83.95
2019-06-07T01:45:19.542Z,83.94
2019-06-07T01:47:32.030Z,83.93
2019-06-07T01:49:43.363Z,83.65
2019-06-07T01:51:54.279Z,83.53
2019-06-07T01:56:18.902Z,83.94
2019-06-07T01:58:30.704Z,83.90
2019-06-07T02:00:41.584Z,83.67
2019-06-07T02:02:52.452Z,83.43
2019-06-07T02:05:04.370Z,83.25
2019-06-07T02:07:15.195Z,83.46
2019-06-07T02:09:29.862Z,83.54
2019-06-07T02:11:38.897Z,83.40
2019-06-07T02:13:49.729Z,83.67
2019-06-07T02:16:00.551Z,83.95
2019-06-07T02:18:11.384Z,83.96
2019-06-07T02:20:23.829Z,83.99
2019-06-07T02:22:35.574Z,84.03
2019-06-07T02:24:46.404Z,83.98
2019-06-07T02:26:57.224Z,83.73
2019-06-07T02:29:08.079Z,83.54
2019-06-07T02:31:18.900Z,83.43
2019-06-07T02:33:35.134Z,83.33
2019-06-07T02:35:42.469Z,83.22
2019-06-07T02:37:53.296Z,83.10
2019-06-07T02:40:05.940Z,82.52
2019-06-07T02:42:16.765Z,82.58
2019-06-07T02:44:31.821Z,82.68
2019-06-07T02:46:49.253Z,82.47
2019-06-07T02:48:54.061Z,82.39
2019-06-07T02:51:04.878Z,82.44
2019-06-07T02:53:15.698Z,82.77
2019-06-07T02:55:29.576Z,83.04
2019-06-07T02:57:41.560Z,82.89
2019-06-07T03:00:06.738Z,81.91
2019-06-07T03:02:05.015Z,81.93
2019-06-07T03:04:17.174Z,82.44
2019-06-07T03:06:31.850Z,82.35
2019-06-07T03:08:44.039Z,82.31
2019-06-07T03:10:56.871Z,82.12
2019-06-07T03:13:08.818Z,82.02
2019-06-07T03:15:32.835Z,82.32
2019-06-07T03:17:40.531Z,82.00
2019-06-07T03:19:52.936Z,82.02
2019-06-07T03:22:03.958Z,82.55
2019-06-07T03:24:14.834Z,82.89
2019-06-07T03:26:27.587Z,83.05
2019-06-07T03:28:39.555Z,82.98
2019-06-07T03:31:01.431Z,82.86
2019-06-07T03:33:03.370Z,82.86
2019-06-07T03:35:14.216Z,82.88
2019-06-07T03:37:25.024Z,82.69
2019-06-07T03:39:37.008Z,82.42
2019-06-07T03:42:05.115Z,82.54
2019-06-07T03:44:01.318Z,82.49
2019-06-07T03:46:12.234Z,82.22
2019-06-07T03:48:23.049Z,82.18
2019-06-07T03:50:36.663Z,81.99
2019-06-07T03:52:47.014Z,82.19
2019-06-07T03:54:57.842Z,81.93
2019-06-07T03:57:08.698Z,82.08
2019-06-07T03:59:19.517Z,82.14
2019-06-07T04:01:32.218Z,82.14
2019-06-07T04:03:51.100Z,82.13
2019-06-07T04:05:55.824Z,82.23
2019-06-07T04:08:06.675Z,82.20
2019-06-07T04:10:17.501Z,81.83
2019-06-07T04:12:28.573Z,81.55
2019-06-07T04:14:42.524Z,81.46
2019-06-07T04:16:52.591Z,81.07
2019-06-07T04:19:03.567Z,80.94
2019-06-07T04:21:14.400Z,80.79
2019-06-07T04:23:28.244Z,80.57
2019-06-07T04:25:42.241Z,80.50
2019-06-07T04:27:51.196Z,80.30
2019-06-07T04:30:08.239Z,80.31
2019-06-07T04:32:19.445Z,80.05
2019-06-07T04:34:34.912Z,79.28
2019-06-07T04:36:56.668Z,79.24
2019-06-07T04:38:57.337Z,79.47
2019-06-07T04:41:08.267Z,79.69
2019-06-07T04:43:19.138Z,79.99
2019-06-07T04:45:38.354Z,79.86
2019-06-07T04:47:44.872Z,79.39
2019-06-07T04:49:56.436Z,78.72
2019-06-07T04:52:07.760Z,78.86
2019-06-07T04:54:18.598Z,77.64
2019-06-07T04:56:30.064Z,78.11
2019-06-07T04:58:41.594Z,78.29
2019-06-07T05:00:58.949Z,78.02
2019-06-07T05:03:05.589Z,77.81
2019-06-07T05:05:16.417Z,76.96
2019-06-07T05:07:27.269Z,76.88
2019-06-07T05:09:42.555Z,76.77
2019-06-07T05:11:51.053Z,76.93
2019-06-07T05:14:01.977Z,76.73
2019-06-07T05:16:12.844Z,77.24
2019-06-07T05:18:23.701Z,76.56
2019-06-07T05:20:36.078Z,75.94
2019-06-07T05:22:47.308Z,75.61
2019-06-07T05:24:58.137Z,75.78
2019-06-07T05:27:09.052Z,76.17
2019-06-07T05:29:19.913Z,74.47
2019-06-07T05:31:31.847Z,74.30
2019-06-07T05:33:43.787Z,74.60
2019-06-07T05:35:54.772Z,73.17
2019-06-07T05:38:06.380Z,74.23
2019-06-07T05:40:21.376Z,73.03
2019-06-07T05:42:34.568Z,72.17
2019-06-07T05:44:47.288Z,71.42
2019-06-07T05:46:58.119Z,71.68
2019-06-07T05:49:08.975Z,70.65
2019-06-07T05:51:19.924Z,70.77
2019-06-07T05:53:31.672Z,71.68
2019-06-07T05:55:47.123Z,71.06
2019-06-07T05:57:56.255Z,69.64
2019-06-07T06:00:07.325Z,70.27
2019-06-07T06:02:25.326Z,70.02
2019-06-07T06:04:30.992Z,69.52
2019-06-07T06:06:44.757Z,68.93
2019-06-07T06:09:12.944Z,69.44
2019-06-07T06:11:07.396Z,68.24
2019-06-07T06:13:18.484Z,67.27
2019-06-07T06:15:42.261Z,67.65
2019-06-07T06:17:46.097Z,68.28
2019-06-07T06:19:54.921Z,68.96
2019-06-07T06:22:06.831Z,68.27
2019-06-07T06:24:17.691Z,66.82
2019-06-07T06:26:28.865Z,68.53
2019-06-07T06:28:42.704Z,68.37
2019-06-07T06:30:54.404Z,66.44
2019-06-07T06:33:05.298Z,66.18
2019-06-07T06:35:16.345Z,64.91
2019-06-07T06:37:27.376Z,64.01
2019-06-07T06:39:39.576Z,64.15
2019-06-07T06:42:01.651Z,65.05
2019-06-07T06:44:03.907Z,65.04
2019-06-07T06:46:31.860Z,63.51
2019-06-07T06:48:27.672Z,63.40
2019-06-07T06:50:38.755Z,62.36
2019-06-07T06:52:54.089Z,62.89
2019-06-07T06:55:05.831Z,61.63
2019-06-07T06:57:19.979Z,62.03
2019-06-07T06:59:39.292Z,61.42
2019-06-07T07:01:42.617Z,61.71
2019-06-07T07:04:10.650Z,60.24
2019-06-07T07:06:25.423Z,60.21
2019-06-07T07:08:19.265Z,59.53
2019-06-07T07:10:45.894Z,59.92
2019-06-07T07:12:57.311Z,58.76
2019-06-07T07:15:16.219Z,59.17
2019-06-07T07:17:48.019Z,59.27
2019-06-07T07:19:39.882Z,59.00
2019-06-07T07:21:54.823Z,58.78
2019-06-07T07:24:20.463Z,57.78
2019-06-07T07:26:16.297Z,58.09
2019-06-07T07:28:27.310Z,58.81
2019-06-07T07:30:54.470Z,57.07
2019-06-07T07:33:04.557Z,55.98
2019-06-07T07:35:15.562Z,56.95
2019-06-07T07:37:26.450Z,54.57
2019-06-07T07:39:37.291Z,55.33
2019-06-07T07:42:12.352Z,54.25
2019-06-07T07:44:06.759Z,54.06
2019-06-07T07:46:29.281Z,55.07
2019-06-07T07:48:26.709Z,53.06
2019-06-07T07:50:37.613Z,54.05
2019-06-07T07:52:53.466Z,53.42
2019-06-07T07:55:01.878Z,52.43
2019-06-07T07:57:12.785Z,50.93
2019-06-07T07:59:41.302Z,51.95
2019-06-07T08:01:36.604Z,51.37
2019-06-07T08:03:48.167Z,49.49
2019-06-07T08:06:00.296Z,49.28
2019-06-07T08:08:11.263Z,49.03
2019-06-07T08:10:22.098Z,49.89
2019-06-07T08:12:55.702Z,49.85
2019-06-07T08:14:47.694Z,48.79
2019-06-07T08:16:59.310Z,49.37
2019-06-07T08:19:10.412Z,48.94
2019-06-07T08:21:26.405Z,52.01
2019-06-07T08:23:36.112Z,48.95
2019-06-07T08:25:46.968Z,48.45
2019-06-07T08:27:59.129Z,47.58
2019-06-07T08:30:46.717Z,50.09
2019-06-07T08:32:24.506Z,50.55
2019-06-07T08:34:35.359Z,48.17
2019-06-07T08:36:46.186Z,48.90
2019-06-07T08:39:03.580Z,48.80
2019-06-07T08:41:12.335Z,49.03
2019-06-07T08:43:22.644Z,48.06
2019-06-07T08:45:33.564Z,47.48
2019-06-07T08:47:44.412Z,48.00
2019-06-07T08:49:59.297Z,46.93
2019-06-07T08:52:12.173Z,47.44
2019-06-07T08:54:23.174Z,47.02
2019-06-07T08:56:33.894Z,45.85
2019-06-07T08:58:44.809Z,47.15
2019-06-07T09:00:59.387Z,46.65
2019-06-07T09:03:08.347Z,46.65
2019-06-07T09:05:19.391Z,46.75
2019-06-07T09:07:30.332Z,45.34
2019-06-07T09:09:41.265Z,46.13
2019-06-07T09:11:52.444Z,46.52
2019-06-07T09:14:09.032Z,46.29
2019-06-07T09:16:17.872Z,45.63
2019-06-07T09:18:41.848Z,45.74
2019-06-07T09:20:46.562Z,47.22
2019-06-07T09:23:06.197Z,46.05
2019-06-07T09:25:20.729Z,47.35
2019-06-07T09:27:25.145Z,43.74
2019-06-07T09:29:36.578Z,46.10
2019-06-07T09:31:53.132Z,44.17
2019-06-07T09:34:07.965Z,44.72
2019-06-07T09:36:13.689Z,44.01
2019-06-07T09:38:26.451Z,46.53
2019-06-07T09:40:37.564Z,45.70
2019-06-07T09:42:48.367Z,47.08
2019-06-07T09:45:02.145Z,45.61
2019-06-07T09:47:30.422Z,44.51
2019-06-07T09:49:32.000Z,43.44
2019-06-07T09:51:37.507Z,43.28
2019-06-07T09:53:48.390Z,43.19
2019-06-07T09:56:03.550Z,43.19
2019-06-07T10:00:42.604Z,44.39
2019-06-07T10:02:37.957Z,43.73
2019-06-07T10:04:48.796Z,44.59
2019-06-07T10:07:10.581Z,42.79
2019-06-07T10:11:25.139Z,42.35
2019-06-07T10:13:36.011Z,42.54
2019-06-07T10:15:46.979Z,43.60
2019-06-07T10:17:58.600Z,42.78
2019-06-07T10:20:09.966Z,43.21
2019-06-07T10:22:23.185Z,41.89
2019-06-07T10:24:34.016Z,44.35
2019-06-07T10:26:44.846Z,42.71
2019-06-07T10:28:55.658Z,45.92
2019-06-07T10:31:08.911Z,41.85
2019-06-07T10:33:19.262Z,42.97
2019-06-07T10:35:30.098Z,44.03
2019-06-07T10:37:40.931Z,43.43
2019-06-07T10:39:51.771Z,43.48
2019-06-07T10:42:04.621Z,42.53
2019-06-07T10:44:15.990Z,41.11
2019-06-07T10:46:26.829Z,41.11
2019-06-07T10:48:37.973Z,41.88
2019-06-07T10:50:48.923Z,41.53
2019-06-07T10:52:59.749Z,41.53
2019-06-07T10:55:10.789Z,43.91
2019-06-07T10:57:21.745Z,42.81
2019-06-07T10:59:32.601Z,41.69
2019-06-07T11:01:43.569Z,43.17
2019-06-07T11:03:54.408Z,41.65
2019-06-07T11:06:05.748Z,41.68
2019-06-07T11:08:16.657Z,42.45
2019-06-07T11:10:27.500Z,44.05
2019-06-07T11:12:38.336Z,42.20
2019-06-07T11:14:49.199Z,40.48
2019-06-07T11:17:00.031Z,42.86
2019-06-07T11:19:15.344Z,42.93
2019-06-07T11:21:23.616Z,41.97
2019-06-07T11:23:34.430Z,40.76
2019-06-07T11:25:45.268Z,42.39
2019-06-07T11:27:56.121Z,40.98
2019-06-07T11:30:08.314Z,41.33
2019-06-07T11:32:19.407Z,41.32
2019-06-07T11:34:30.247Z,41.93
2019-06-07T11:36:41.074Z,39.60
2019-06-07T11:38:51.954Z,40.66
2019-06-07T11:41:03.007Z,41.46
2019-06-07T11:43:14.966Z,42.40
2019-06-07T11:45:26.008Z,42.40
2019-06-07T11:47:36.862Z,41.54
2019-06-07T11:49:47.862Z,40.79
2019-06-07T11:51:58.758Z,42.48
2019-06-07T11:54:09.796Z,40.83
2019-06-07T11:56:20.787Z,41.53
2019-06-07T11:58:31.632Z,41.53
2019-06-07T12:00:42.485Z,41.20
2019-06-07T12:02:53.553Z,41.23
2019-06-07T12:05:08.095Z,40.82
2019-06-07T12:07:19.937Z,40.82
2019-06-07T12:09:30.972Z,39.93
2019-06-07T12:11:41.909Z,41.27
2019-06-07T12:13:54.634Z,43.85
2019-06-07T12:16:05.521Z,43.53
2019-06-07T12:18:17.332Z,41.80
2019-06-07T12:20:28.201Z,41.08
2019-06-07T12:22:39.029Z,40.48
2019-06-07T12:24:49.924Z,40.55
2019-06-07T12:27:00.731Z,41.04
2019-06-07T12:29:12.803Z,39.66
2019-06-07T12:31:23.887Z,40.62
2019-06-07T12:33:34.982Z,42.49
2019-06-07T12:35:45.887Z,42.58
2019-06-07T12:37:56.731Z,40.23
2019-06-07T12:40:08.624Z,40.38
2019-06-07T12:42:20.613Z,40.25
2019-06-07T12:44:31.597Z,41.36
2019-06-07T12:46:42.540Z,39.99
2019-06-07T12:48:53.419Z,39.39
2019-06-07T12:51:04.396Z,39.06
2019-06-07T12:53:15.705Z,39.96
2019-06-07T12:55:26.626Z,39.49
2019-06-07T12:57:37.482Z,41.29
2019-06-07T12:59:48.308Z,41.36
2019-06-07T13:02:02.161Z,42.93
2019-06-07T13:04:11.953Z,39.70
2019-06-07T13:06:23.692Z,39.35
2019-06-07T13:08:34.904Z,40.97
2019-06-07T13:10:45.791Z,40.60
2019-06-07T13:12:56.948Z,39.41
2019-06-07T13:15:08.914Z,39.02
2019-06-07T13:17:20.370Z,40.15
2019-06-07T13:19:31.301Z,40.09
2019-06-07T13:21:42.167Z,38.79
2019-06-07T13:23:53.021Z,39.81
2019-06-07T13:26:03.845Z,39.87
2019-06-07T13:28:14.697Z,40.11
2019-06-07T13:30:25.686Z,40.76
2019-06-07T13:32:37.300Z,40.28
2019-06-07T13:34:48.174Z,39.74
2019-06-07T13:36:59.083Z,39.83
2019-06-07T13:39:09.881Z,41.49
2019-06-07T13:41:33.688Z,40.05
2019-06-07T13:43:33.602Z,40.46
2019-06-07T13:45:44.428Z,38.66
2019-06-07T13:47:55.276Z,40.13
2019-06-07T13:50:06.906Z,40.53
2019-06-07T13:52:17.800Z,38.86
2019-06-07T13:54:29.699Z,38.48
2019-06-07T13:57:00.696Z,37.63
2019-06-07T13:58:53.597Z,37.80
2019-06-07T14:01:04.430Z,39.68
2019-06-07T14:03:15.267Z,39.55
2019-06-07T14:05:27.284Z,41.01
2019-06-07T14:07:38.235Z,39.59
2019-06-07T14:09:49.094Z,39.54
2019-06-07T14:11:59.942Z,38.66
2019-06-07T14:14:12.740Z,38.03
2019-06-07T14:16:24.289Z,37.76
2019-06-07T14:18:35.226Z,37.93
2019-06-07T14:20:46.058Z,38.13
2019-06-07T14:22:56.891Z,36.99
2019-06-07T14:25:08.450Z,37.38
2019-06-07T14:27:19.288Z,37.52
2019-06-07T14:29:30.204Z,38.20
2019-06-07T14:31:41.023Z,39.10
2019-06-07T14:33:51.869Z,37.73
2019-06-07T14:36:02.993Z,36.12
2019-06-07T14:38:13.824Z,37.40
2019-06-07T14:40:25.422Z,36.51
2019-06-07T14:42:36.516Z,36.30
2019-06-07T14:44:47.471Z,36.78
2019-06-07T14:46:58.609Z,36.84
2019-06-07T14:49:11.377Z,37.00
2019-06-07T14:51:22.200Z,37.87
2019-06-07T14:53:33.312Z,36.20
2019-06-07T14:55:44.168Z,36.38
2019-06-07T14:57:55.021Z,35.74
2019-06-07T15:00:12.170Z,36.90
2019-06-07T15:02:23.215Z,36.27
2019-06-07T15:04:36.948Z,35.94
2019-06-07T15:06:47.913Z,36.89
2019-06-07T15:08:58.865Z,36.38
2019-06-07T15:11:09.740Z,36.72
2019-06-07T15:13:20.561Z,37.58
2019-06-07T15:15:32.754Z,37.70
2019-06-07T15:17:43.838Z,36.73
2019-06-07T15:19:55.030Z,37.14
2019-06-07T15:22:05.822Z,36.65
2019-06-07T15:24:16.658Z,36.87
2019-06-07T15:26:28.366Z,35.55
2019-06-07T15:28:39.227Z,36.57
2019-06-07T15:30:50.073Z,35.21
2019-06-07T15:33:00.888Z,36.07
2019-06-07T15:35:11.933Z,36.08
2019-06-07T15:37:22.762Z,36.74
2019-06-07T15:39:34.667Z,36.30
2019-06-07T15:41:45.533Z,36.78
2019-06-07T15:43:56.364Z,37.21
2019-06-07T15:46:07.216Z,36.70
2019-06-07T15:48:18.159Z,37.30
2019-06-07T15:50:30.466Z,37.70
2019-06-07T15:52:43.350Z,37.05
2019-06-07T15:54:54.169Z,36.98
2019-06-07T15:57:05.128Z,36.99
2019-06-07T15:59:15.948Z,37.14
2019-06-07T16:01:26.788Z,36.68
2019-06-07T16:03:37.996Z,36.58
2019-06-07T16:05:48.970Z,37.14
2019-06-07T16:07:59.813Z,37.74
2019-06-07T16:10:10.989Z,38.19
2019-06-07T16:12:21.840Z,38.33
2019-06-07T16:14:33.155Z,37.77
2019-06-07T16:16:44.093Z,37.75
2019-06-07T16:18:54.955Z,38.05
2019-06-07T16:21:05.886Z,37.19
2019-06-07T16:23:16.743Z,38.13
2019-06-07T16:25:27.613Z,37.92
2019-06-07T16:27:38.719Z,36.52
2019-06-07T16:29:49.636Z,37.21
2019-06-07T16:32:00.477Z,37.76
2019-06-07T16:34:11.367Z,37.71
2019-06-07T16:36:22.180Z,37.14
2019-06-07T16:38:33.016Z,37.84
2019-06-07T16:40:44.620Z,37.47
2019-06-07T16:42:55.652Z,37.93
2019-06-07T16:45:07.792Z,37.78
2019-06-07T16:47:18.615Z,38.93
2019-06-07T16:49:29.483Z,38.15
2019-06-07T16:51:41.308Z,38.72
2019-06-07T16:53:52.359Z,38.73
2019-06-07T16:56:04.201Z,39.92
2019-06-07T16:58:15.079Z,39.09
2019-06-07T17:00:26.051Z,41.40
2019-06-07T17:02:38.087Z,44.54
2019-06-07T17:04:49.162Z,48.18
2019-06-07T17:06:59.978Z,54.49
2019-06-07T17:09:10.924Z,58.30
2019-06-07T17:11:21.973Z,60.86
2019-06-07T17:13:34.060Z,63.76
2019-06-07T17:15:45.089Z,64.71
2019-06-07T17:17:55.879Z,65.48
2019-06-07T17:20:07.959Z,65.29
2019-06-07T17:22:18.829Z,64.29
2019-06-07T17:24:29.729Z,65.17
2019-06-07T17:26:41.623Z,65.53
2019-06-07T17:28:52.756Z,64.97
2019-06-07T17:31:03.575Z,64.62
2019-06-07T17:33:16.422Z,67.94
2019-06-07T17:35:27.292Z,67.00
2019-06-07T17:37:38.205Z,64.95
2019-06-07T17:39:49.175Z,65.47
2019-06-07T17:42:02.435Z,65.48
2019-06-07T17:44:12.811Z,67.48
2019-06-07T17:46:23.747Z,64.66
2019-06-07T17:48:34.591Z,65.60
2019-06-07T17:50:45.903Z,66.58
2019-06-07T17:52:56.776Z,66.60
2019-06-07T17:55:07.946Z,67.32
2019-06-07T17:57:18.901Z,67.12
2019-06-07T17:59:29.739Z,66.92
2019-06-07T18:01:41.733Z,66.59
2019-06-07T18:03:53.436Z,66.56
2019-06-07T18:06:04.424Z,65.43
2019-06-07T18:08:16.088Z,65.53
2019-06-07T18:10:35.983Z,66.85
2019-06-07T18:12:48.058Z,65.92
2019-06-07T18:14:58.969Z,65.57
2019-06-07T18:17:09.801Z,63.39
2019-06-07T18:19:20.860Z,64.79
2019-06-07T18:21:31.771Z,64.50
2019-06-07T18:23:42.631Z,64.07
2019-06-07T18:25:54.774Z,63.75
2019-06-07T18:28:06.111Z,63.28
2019-06-07T18:30:17.461Z,62.59
2019-06-07T18:32:28.320Z,61.45
2019-06-07T18:34:39.238Z,61.54
2019-06-07T18:36:51.046Z,62.45
2019-06-07T18:39:05.893Z,60.26
2019-06-07T18:41:16.726Z,59.05
2019-06-07T18:43:27.706Z,58.86
2019-06-07T18:45:38.544Z,57.64
2019-06-07T18:47:49.513Z,57.55
2019-06-07T18:50:00.351Z,56.33
2019-06-07T18:52:13.106Z,57.00
2019-06-07T18:54:24.066Z,55.76
2019-06-07T18:56:34.936Z,57.09
2019-06-07T18:58:47.015Z,56.30
2019-06-07T19:00:58.337Z,56.30
2019-06-07T19:03:09.312Z,56.71
2019-06-07T19:05:20.559Z,56.47
2019-06-07T19:07:31.415Z,55.61
2019-06-07T19:09:42.284Z,56.02
2019-06-07T19:11:53.213Z,54.06
2019-06-07T19:14:04.196Z,54.89
2019-06-07T19:16:15.029Z,54.88
2019-06-07T19:18:25.999Z,55.64
2019-06-07T19:20:36.863Z,56.08
2019-06-07T19:22:47.738Z,54.53
2019-06-07T19:24:58.699Z,55.10
2019-06-07T19:27:09.543Z,55.50
2019-06-07T19:29:20.411Z,54.72
2019-06-07T19:31:31.264Z,54.33
2019-06-07T19:33:49.112Z,54.68
2019-06-07T19:35:55.521Z,55.11
2019-06-07T19:38:06.446Z,55.06
2019-06-07T19:40:17.574Z,53.96
2019-06-07T19:42:28.435Z,54.85
2019-06-07T19:44:52.153Z,54.59
2019-06-07T19:46:52.261Z,53.05
2019-06-07T19:49:03.174Z,53.71
2019-06-07T19:51:13.965Z,53.29
2019-06-07T19:53:24.896Z,53.29
2019-06-07T19:55:35.827Z,54.35
2019-06-07T19:57:49.979Z,52.63
2019-06-07T19:59:59.649Z,54.87
2019-06-07T20:02:10.677Z,54.84
2019-06-07T20:04:21.749Z,54.30
2019-06-07T20:06:32.583Z,53.47
2019-06-07T20:08:43.560Z,53.63
2019-06-07T20:10:54.493Z,54.11
2019-06-07T20:13:05.376Z,54.08
2019-06-07T20:15:29.125Z,53.16
2019-06-07T20:17:30.072Z,52.91
2019-06-07T20:19:40.945Z,54.52
2019-06-07T20:21:51.886Z,54.68
2019-06-07T20:24:24.090Z,54.64
2019-06-07T20:26:15.868Z,53.78
2019-06-07T20:28:26.867Z,54.75
2019-06-07T20:30:37.716Z,54.97
2019-06-07T20:32:48.528Z,55.16
2019-06-07T20:34:59.683Z,54.85
2019-06-07T20:37:10.638Z,53.80
2019-06-07T20:39:21.470Z,54.60
2019-06-07T20:41:32.323Z,55.11
2019-06-07T20:43:43.161Z,55.12
2019-06-07T20:45:54.030Z,54.10
2019-06-07T20:48:06.193Z,55.49
2019-06-07T20:50:17.397Z,53.52
2019-06-07T20:52:28.236Z,54.18
2019-06-07T20:54:39.073Z,54.17
2019-06-07T20:56:50.175Z,55.21
2019-06-07T20:59:01.026Z,54.86
2019-06-07T21:01:11.875Z,55.23
2019-06-07T21:03:23.646Z,56.16
2019-06-07T21:05:34.510Z,55.33
2019-06-07T21:07:45.345Z,55.74
2019-06-07T21:09:56.169Z,55.02
2019-06-07T21:12:07.951Z,56.09
2019-06-07T21:14:19.062Z,55.18
2019-06-07T21:16:29.897Z,56.00
2019-06-07T21:18:40.760Z,55.87
2019-06-07T21:20:51.646Z,55.79
2019-06-07T21:23:02.838Z,55.95
2019-06-07T21:25:13.878Z,56.25
2019-06-07T21:27:24.776Z,56.47
2019-06-07T21:29:35.664Z,56.44
2019-06-07T21:31:46.610Z,55.79
2019-06-07T21:33:57.534Z,56.36
2019-06-07T21:36:09.698Z,56.62
2019-06-07T21:38:20.759Z,56.51
2019-06-07T21:40:31.570Z,57.74
2019-06-07T21:42:42.459Z,57.86
2019-06-07T21:44:53.278Z,56.10
2019-06-07T21:47:04.331Z,55.06
2019-06-07T21:49:15.272Z,54.37
2019-06-07T21:51:26.131Z,54.17
2019-06-07T21:53:37.106Z,54.13
2019-06-07T21:55:48.046Z,54.91
2019-06-07T21:57:58.982Z,56.96
2019-06-07T22:00:14.346Z,59.17
2019-06-07T22:02:25.285Z,60.85
2019-06-07T22:04:36.246Z,61.90
2019-06-07T22:06:47.065Z,62.25
2019-06-07T22:08:57.918Z,62.14
2019-06-07T22:11:10.119Z,63.54
2019-06-07T22:13:21.433Z,62.81
2019-06-07T22:15:36.740Z,62.83
2019-06-07T22:17:45.069Z,63.79
2019-06-07T22:19:55.883Z,63.63
2019-06-07T22:22:07.604Z,63.94
2019-06-07T22:24:19.758Z,63.65
2019-06-07T22:26:30.613Z,65.65
2019-06-07T22:28:41.589Z,66.04
2019-06-07T22:30:52.441Z,64.55
2019-06-07T22:33:03.299Z,65.40
2019-06-07T22:35:15.015Z,66.00
2019-06-07T22:37:25.916Z,66.78
2019-06-07T22:39:36.760Z,66.52
2019-06-07T22:41:47.584Z,66.93
2019-06-07T22:43:58.502Z,67.08
2019-06-07T22:46:09.354Z,66.89
2019-06-07T22:48:20.215Z,66.95
2019-06-07T22:50:31.067Z,67.47
2019-06-07T22:52:41.899Z,67.39
2019-06-07T22:54:52.728Z,68.33
2019-06-07T22:57:16.509Z,68.56
2019-06-07T22:59:27.481Z,68.21
2019-06-07T23:01:38.309Z,69.24
2019-06-07T23:03:49.166Z,69.06
2019-06-07T23:05:59.991Z,68.80
2019-06-07T23:08:11.034Z,68.87
2019-06-07T23:10:21.982Z,69.72
2019-06-07T23:12:32.860Z,69.85
2019-06-07T23:14:43.752Z,70.66
2019-06-07T23:16:56.116Z,70.66
2019-06-07T23:19:07.215Z,71.04
2019-06-07T23:21:18.270Z,71.98
2019-06-07T23:23:29.040Z,71.54
2019-06-07T23:25:39.883Z,72.84
2019-06-07T23:27:50.756Z,72.73
2019-06-07T23:30:08.661Z,72.84
2019-06-07T23:32:20.167Z,73.08
2019-06-07T23:34:32.121Z,73.33
2019-06-07T23:36:42.969Z,73.30
2019-06-07T23:38:53.785Z,72.80
2019-06-07T23:41:04.627Z,73.09
2019-06-07T23:43:15.445Z,73.17
2019-06-07T23:45:26.428Z,74.31
2019-06-07T23:47:37.245Z,74.02
2019-06-07T23:49:48.072Z,74.49
2019-06-07T23:51:58.913Z,73.89
2019-06-07T23:54:09.748Z,73.96
2019-06-07T23:56:20.590Z,73.09
2019-06-07T23:58:31.478Z,72.81
